createdAt,value
2023-11-15T00:00:05.558Z,650.26
2023-11-15T00:00:16.582Z,650.11
2023-11-15T00:00:27.568Z,650.02
2023-11-15T00:00:38.568Z,650.01
2023-11-15T00:00:49.573Z,650.09
2023-11-15T00:01:00.578Z,650.21
2023-11-15T00:01:11.592Z,650.03
2023-11-15T00:01:22.581Z,649.82
2023-11-15T00:01:33.573Z,649.89
2023-11-15T00:01:44.571Z,649.99
2023-11-15T00:01:55.618Z,649.88
2023-11-15T00:02:07.577Z,650.26
2023-11-15T00:02:19.615Z,650.21
2023-11-15T00:02:33.443Z,650.03
2023-11-15T00:02:42.624Z,649.87
2023-11-15T00:02:54.646Z,649.93
2023-11-15T00:03:05.692Z,649.91
2023-11-15T00:03:17.735Z,649.99
2023-11-15T00:03:28.650Z,649.91
2023-11-15T00:03:39.689Z,649.69
2023-11-15T00:03:51.685Z,649.64
2023-11-15T00:04:03.650Z,649.57
2023-11-15T00:04:14.643Z,649.63
2023-11-15T00:04:25.620Z,649.49
2023-11-15T00:04:36.617Z,649.64
2023-11-15T00:04:47.615Z,649.92
2023-11-15T00:04:58.656Z,649.71
2023-11-15T00:05:09.629Z,649.41
2023-11-15T00:05:21.679Z,649.23
2023-11-15T00:05:32.669Z,649.46
2023-11-15T00:05:43.744Z,649.72
2023-11-15T00:05:54.732Z,649.69
2023-11-15T00:06:05.658Z,649.44
2023-11-15T00:06:17.782Z,649.33
2023-11-15T00:06:28.631Z,649.20
2023-11-15T00:06:39.645Z,649.22
2023-11-15T00:06:50.616Z,649.19
2023-11-15T00:07:01.697Z,649.40
2023-11-15T00:07:13.592Z,649.69
2023-11-15T00:07:24.597Z,649.12
2023-11-15T00:07:36.599Z,649.05
2023-11-15T00:07:48.583Z,648.97
2023-11-15T00:07:59.605Z,648.75
2023-11-15T00:08:11.603Z,649.09
2023-11-15T00:08:22.616Z,649.10
2023-11-15T00:08:34.638Z,649.08
2023-11-15T00:08:45.643Z,648.93
2023-11-15T00:08:56.584Z,648.99
2023-11-15T00:09:07.604Z,648.85
2023-11-15T00:09:19.589Z,648.66
2023-11-15T00:09:31.574Z,648.62
2023-11-15T00:09:42.568Z,648.71
2023-11-15T00:09:53.577Z,648.62
2023-11-15T00:10:04.578Z,648.59
2023-11-15T00:10:15.570Z,648.52
2023-11-15T00:10:26.601Z,648.79
2023-11-15T00:10:38.593Z,648.57
2023-11-15T00:10:49.598Z,648.32
2023-11-15T00:11:00.598Z,648.85
2023-11-15T00:11:11.593Z,648.87
2023-11-15T00:11:22.610Z,648.62
2023-11-15T00:11:33.638Z,648.81
2023-11-15T00:11:45.669Z,648.72
2023-11-15T00:11:57.619Z,648.60
2023-11-15T00:12:08.617Z,648.54
2023-11-15T00:12:20.593Z,648.60
2023-11-15T00:12:31.607Z,648.58
2023-11-15T00:12:42.601Z,648.34
2023-11-15T00:12:53.595Z,648.40
2023-11-15T00:13:04.601Z,648.67
2023-11-15T00:13:16.585Z,648.46
2023-11-15T00:13:28.587Z,648.84
2023-11-15T00:13:39.581Z,648.44
2023-11-15T00:13:50.582Z,648.57
2023-11-15T00:14:02.587Z,648.35
2023-11-15T00:14:13.592Z,648.42
2023-11-15T00:14:25.640Z,648.69
2023-11-15T00:14:37.657Z,648.58
2023-11-15T00:14:48.605Z,648.33
2023-11-15T00:15:00.598Z,648.30
2023-11-15T00:15:11.603Z,648.06
2023-11-15T00:15:22.600Z,647.84
2023-11-15T00:15:34.702Z,647.79
2023-11-15T00:15:45.650Z,647.85
2023-11-15T00:15:57.639Z,647.88
2023-11-15T00:16:09.633Z,647.83
2023-11-15T00:16:21.665Z,647.69
2023-11-15T00:16:32.580Z,647.55
2023-11-15T00:16:43.611Z,647.58
2023-11-15T00:16:55.589Z,647.53
2023-11-15T00:17:06.692Z,647.57
2023-11-15T00:17:17.620Z,647.62
2023-11-15T00:17:29.620Z,647.61
2023-11-15T00:17:41.620Z,648.27
2023-11-15T00:17:53.661Z,648.34
2023-11-15T00:18:04.646Z,647.81
2023-11-15T00:18:15.677Z,647.62
2023-11-15T00:18:27.605Z,647.64
2023-11-15T00:18:38.617Z,647.61
2023-11-15T00:18:50.625Z,647.53
2023-11-15T00:19:02.611Z,647.71
2023-11-15T00:19:14.643Z,647.59
2023-11-15T00:19:25.574Z,648.06
2023-11-15T00:19:36.581Z,647.62
2023-11-15T00:19:47.585Z,647.79
2023-11-15T00:19:58.597Z,647.43
2023-11-15T00:20:10.585Z,647.50
2023-11-15T00:20:21.640Z,647.75
2023-11-15T00:20:33.655Z,647.45
2023-11-15T00:20:45.653Z,647.08
2023-11-15T00:20:57.656Z,647.41
2023-11-15T00:21:09.612Z,647.72
2023-11-15T00:21:21.584Z,647.42
2023-11-15T00:21:32.590Z,647.20
2023-11-15T00:21:44.611Z,647.05
2023-11-15T00:21:56.584Z,646.94
2023-11-15T00:22:07.577Z,647.37
2023-11-15T00:22:18.613Z,646.97
2023-11-15T00:22:30.610Z,647.68
2023-11-15T00:22:42.622Z,647.35
2023-11-15T00:22:54.578Z,647.35
2023-11-15T00:23:05.598Z,647.07
2023-11-15T00:23:16.659Z,646.89
2023-11-15T00:23:27.649Z,646.73
2023-11-15T00:23:38.627Z,646.62
2023-11-15T00:23:50.646Z,646.60
2023-11-15T00:24:02.615Z,646.48
2023-11-15T00:24:14.575Z,646.54
2023-11-15T00:24:25.594Z,646.25
2023-11-15T00:24:37.598Z,646.61
2023-11-15T00:24:49.602Z,646.58
2023-11-15T00:25:00.580Z,646.55
2023-11-15T00:25:11.602Z,646.72
2023-11-15T00:25:22.599Z,646.54
2023-11-15T00:25:34.597Z,646.27
2023-11-15T00:25:45.598Z,646.35
2023-11-15T00:25:56.594Z,646.62
2023-11-15T00:26:07.604Z,646.34
2023-11-15T00:26:18.646Z,646.59
2023-11-15T00:26:29.575Z,646.79
2023-11-15T00:26:40.605Z,646.95
2023-11-15T00:26:51.647Z,647.09
2023-11-15T00:27:02.577Z,646.52
2023-11-15T00:27:13.572Z,646.14
2023-11-15T00:27:24.589Z,645.75
2023-11-15T00:27:35.591Z,645.79
2023-11-15T00:27:47.588Z,645.80
2023-11-15T00:27:58.591Z,645.75
2023-11-15T00:28:09.689Z,645.67
2023-11-15T00:28:20.584Z,645.58
2023-11-15T00:28:31.607Z,646.01
2023-11-15T00:28:43.589Z,645.83
2023-11-15T00:28:54.603Z,645.67
2023-11-15T00:29:05.605Z,645.86
2023-11-15T00:29:16.633Z,645.91
2023-11-15T00:29:28.664Z,645.53
2023-11-15T00:29:39.702Z,645.52
2023-11-15T00:29:50.635Z,645.55
2023-11-15T00:30:02.608Z,645.27
2023-11-15T00:30:13.697Z,645.32
2023-11-15T00:30:24.600Z,645.07
2023-11-15T00:30:35.632Z,645.17
2023-11-15T00:30:47.606Z,645.11
2023-11-15T00:30:59.587Z,645.07
2023-11-15T00:31:10.609Z,645.19
2023-11-15T00:31:22.598Z,645.31
2023-11-15T00:31:33.605Z,645.01
2023-11-15T00:31:44.618Z,644.91
2023-11-15T00:31:55.612Z,644.91
2023-11-15T00:32:07.617Z,645.17
2023-11-15T00:32:19.600Z,644.96
2023-11-15T00:32:31.624Z,644.77
2023-11-15T00:32:42.683Z,644.61
2023-11-15T00:32:54.649Z,644.55
2023-11-15T00:33:05.707Z,644.54
2023-11-15T00:33:17.684Z,644.82
2023-11-15T00:33:28.577Z,644.48
2023-11-15T00:33:39.643Z,644.54
2023-11-15T00:33:50.601Z,645.37
2023-11-15T00:34:01.630Z,645.02
2023-11-15T00:34:13.629Z,644.57
2023-11-15T00:34:25.654Z,644.62
2023-11-15T00:34:37.638Z,644.54
2023-11-15T00:34:49.623Z,644.64
2023-11-15T00:35:01.601Z,644.61
2023-11-15T00:35:13.737Z,644.46
2023-11-15T00:35:25.630Z,644.63
2023-11-15T00:35:37.649Z,644.65
2023-11-15T00:35:48.719Z,644.55
2023-11-15T00:35:59.696Z,644.70
2023-11-15T00:36:11.664Z,644.62
2023-11-15T00:36:22.652Z,644.56
2023-11-15T00:36:33.592Z,644.65
2023-11-15T00:36:45.610Z,644.55
2023-11-15T00:37:00.337Z,644.35
2023-11-15T00:37:08.644Z,644.25
2023-11-15T00:37:20.597Z,644.33
2023-11-15T00:37:31.598Z,644.32
2023-11-15T00:37:42.599Z,644.17
2023-11-15T00:37:53.678Z,644.15
2023-11-15T00:38:04.602Z,644.02
2023-11-15T00:38:16.628Z,644.01
2023-11-15T00:38:28.962Z,644.14
2023-11-15T00:38:40.663Z,644.12
2023-11-15T00:38:52.659Z,644.06
2023-11-15T00:39:04.641Z,644.02
2023-11-15T00:39:16.616Z,643.77
2023-11-15T00:39:28.612Z,643.98
2023-11-15T00:39:40.605Z,643.85
2023-11-15T00:39:51.608Z,643.97
2023-11-15T00:40:02.611Z,644.12
2023-11-15T00:40:14.609Z,644.03
2023-11-15T00:40:26.580Z,643.90
2023-11-15T00:40:37.573Z,643.86
2023-11-15T00:40:48.565Z,643.90
2023-11-15T00:40:59.579Z,643.89
2023-11-15T00:41:10.562Z,643.78
2023-11-15T00:41:21.588Z,643.96
2023-11-15T00:41:33.628Z,643.90
2023-11-15T00:41:45.638Z,644.11
2023-11-15T00:41:57.646Z,644.46
2023-11-15T00:42:09.587Z,644.20
2023-11-15T00:42:20.585Z,644.20
2023-11-15T00:42:31.603Z,644.03
2023-11-15T00:42:43.584Z,643.97
2023-11-15T00:42:54.576Z,643.75
2023-11-15T00:43:05.581Z,643.65
2023-11-15T00:43:16.596Z,643.36
2023-11-15T00:43:28.601Z,644.06
2023-11-15T00:43:39.599Z,643.97
2023-11-15T00:43:50.598Z,643.78
2023-11-15T00:44:02.596Z,643.80
2023-11-15T00:44:13.585Z,643.59
2023-11-15T00:44:24.629Z,643.59
2023-11-15T00:44:36.626Z,643.31
2023-11-15T00:44:48.626Z,643.35
2023-11-15T00:44:59.620Z,643.21
2023-11-15T00:45:10.644Z,643.19
2023-11-15T00:45:22.611Z,643.36
2023-11-15T00:45:33.696Z,643.18
2023-11-15T00:45:44.640Z,643.06
2023-11-15T00:45:56.677Z,643.00
2023-11-15T00:46:07.627Z,643.13
2023-11-15T00:46:19.678Z,642.92
2023-11-15T00:46:30.592Z,642.86
2023-11-15T00:46:41.605Z,642.85
2023-11-15T00:46:52.609Z,642.90
2023-11-15T00:47:04.619Z,642.83
2023-11-15T00:47:15.605Z,642.99
2023-11-15T00:47:26.693Z,642.87
2023-11-15T00:47:38.663Z,642.64
2023-11-15T00:47:49.658Z,642.73
2023-11-15T00:48:01.637Z,642.78
2023-11-15T00:48:12.648Z,643.37
2023-11-15T00:48:23.688Z,642.81
2023-11-15T00:48:34.682Z,642.57
2023-11-15T00:48:46.664Z,642.68
2023-11-15T00:48:58.623Z,642.93
2023-11-15T00:49:10.621Z,643.03
2023-11-15T00:49:22.611Z,642.92
2023-11-15T00:49:34.581Z,642.71
2023-11-15T00:49:45.600Z,642.65
2023-11-15T00:49:56.606Z,642.58
2023-11-15T00:50:08.599Z,642.57
2023-11-15T00:50:19.680Z,642.51
2023-11-15T00:50:30.633Z,642.28
2023-11-15T00:50:42.688Z,642.43
2023-11-15T00:50:54.629Z,642.76
2023-11-15T00:51:06.593Z,642.61
2023-11-15T00:51:17.594Z,642.74
2023-11-15T00:51:28.617Z,643.06
2023-11-15T00:51:40.612Z,642.42
2023-11-15T00:51:52.640Z,642.71
2023-11-15T00:52:04.609Z,642.31
2023-11-15T00:52:15.622Z,642.44
2023-11-15T00:52:27.611Z,642.47
2023-11-15T00:52:38.689Z,642.31
2023-11-15T00:52:50.605Z,642.37
2023-11-15T00:53:02.591Z,642.33
2023-11-15T00:53:14.592Z,642.34
2023-11-15T00:53:25.625Z,642.37
2023-11-15T00:53:37.606Z,642.06
2023-11-15T00:53:49.595Z,641.98
2023-11-15T00:54:01.590Z,642.00
2023-11-15T00:54:12.593Z,641.83
2023-11-15T00:54:24.591Z,641.72
2023-11-15T00:54:36.603Z,641.76
2023-11-15T00:54:48.607Z,641.95
2023-11-15T00:54:59.616Z,641.96
2023-11-15T00:55:11.639Z,642.01
2023-11-15T00:55:23.613Z,641.99
2023-11-15T00:55:35.618Z,642.12
2023-11-15T00:55:46.621Z,642.29
2023-11-15T00:55:58.623Z,642.37
2023-11-15T00:56:10.587Z,642.18
2023-11-15T00:56:21.676Z,642.05
2023-11-15T00:56:32.657Z,641.87
2023-11-15T00:56:44.645Z,641.75
2023-11-15T00:56:56.658Z,641.60
2023-11-15T00:57:08.637Z,641.59
2023-11-15T00:57:20.609Z,641.38
2023-11-15T00:57:32.608Z,641.16
2023-11-15T00:57:44.615Z,641.41
2023-11-15T00:57:56.601Z,641.79
2023-11-15T00:58:08.578Z,641.35
2023-11-15T00:58:19.587Z,641.10
2023-11-15T00:58:30.597Z,641.67
2023-11-15T00:58:42.610Z,640.97
2023-11-15T00:58:54.597Z,640.90
2023-11-15T00:59:05.615Z,641.30
2023-11-15T00:59:16.600Z,643.63
2023-11-15T00:59:28.643Z,642.05
2023-11-15T00:59:39.643Z,641.35
2023-11-15T00:59:50.587Z,641.21
2023-11-15T01:00:01.629Z,641.76
2023-11-15T01:00:13.585Z,642.60
2023-11-15T01:00:24.597Z,641.62
2023-11-15T01:00:35.615Z,642.16
2023-11-15T01:00:47.595Z,642.20
2023-11-15T01:00:58.623Z,641.37
2023-11-15T01:01:10.599Z,640.87
2023-11-15T01:01:21.601Z,640.97
2023-11-15T01:01:32.611Z,640.91
2023-11-15T01:01:44.677Z,640.67
2023-11-15T01:01:55.639Z,641.10
2023-11-15T01:02:07.651Z,641.25
2023-11-15T01:02:18.664Z,640.95
2023-11-15T01:02:29.772Z,640.99
2023-11-15T01:02:41.693Z,640.49
2023-11-15T01:02:53.863Z,640.32
2023-11-15T01:03:05.748Z,640.00
2023-11-15T01:03:16.966Z,639.99
2023-11-15T01:03:27.974Z,640.15
2023-11-15T01:03:38.738Z,640.64
2023-11-15T01:03:49.777Z,640.61
2023-11-15T01:04:01.788Z,640.68
2023-11-15T01:04:12.662Z,639.89
2023-11-15T01:04:24.736Z,640.10
2023-11-15T01:04:35.568Z,639.14
2023-11-15T01:04:46.571Z,639.85
2023-11-15T01:04:57.574Z,641.68
2023-11-15T01:05:08.584Z,640.50
2023-11-15T01:05:20.596Z,640.98
2023-11-15T01:05:31.697Z,640.37
2023-11-15T01:05:43.631Z,640.52
2023-11-15T01:05:55.607Z,641.18
2023-11-15T01:06:06.601Z,640.23
2023-11-15T01:06:17.608Z,640.01
2023-11-15T01:06:29.596Z,639.79
2023-11-15T01:06:40.600Z,640.78
2023-11-15T01:06:52.604Z,639.81
2023-11-15T01:07:04.593Z,639.74
2023-11-15T01:07:15.590Z,639.73
2023-11-15T01:07:26.696Z,639.82
2023-11-15T01:07:37.617Z,639.92
2023-11-15T01:07:48.608Z,639.93
2023-11-15T01:08:00.612Z,639.42
2023-11-15T01:08:11.623Z,639.50
2023-11-15T01:08:23.616Z,638.94
2023-11-15T01:08:34.648Z,639.21
2023-11-15T01:08:46.655Z,639.01
2023-11-15T01:08:58.622Z,639.44
2023-11-15T01:09:10.591Z,639.87
2023-11-15T01:09:22.587Z,639.35
2023-11-15T01:09:33.620Z,639.15
2023-11-15T01:09:45.591Z,639.97
2023-11-15T01:09:57.607Z,639.82
2023-11-15T01:10:09.596Z,638.68
2023-11-15T01:10:20.667Z,639.03
2023-11-15T01:10:31.604Z,637.95
2023-11-15T01:10:42.614Z,640.26
2023-11-15T01:10:53.604Z,638.46
2023-11-15T01:11:04.621Z,638.55
2023-11-15T01:11:16.584Z,639.63
2023-11-15T01:11:27.639Z,638.76
2023-11-15T01:11:38.605Z,639.03
2023-11-15T01:11:49.675Z,638.70
2023-11-15T01:12:00.582Z,638.43
2023-11-15T01:12:11.603Z,638.21
2023-11-15T01:12:23.581Z,638.00
2023-11-15T01:12:34.574Z,637.91
2023-11-15T01:12:45.581Z,637.58
2023-11-15T01:12:56.603Z,637.57
2023-11-15T01:13:07.602Z,637.42
2023-11-15T01:13:18.591Z,638.54
2023-11-15T01:13:30.589Z,637.96
2023-11-15T01:13:41.603Z,637.70
2023-11-15T01:13:52.589Z,637.44
2023-11-15T01:14:03.598Z,638.03
2023-11-15T01:14:14.615Z,640.55
2023-11-15T01:14:26.621Z,638.69
2023-11-15T01:14:38.638Z,638.39
2023-11-15T01:14:50.726Z,638.19
2023-11-15T01:15:02.630Z,639.03
2023-11-15T01:15:14.696Z,638.00
2023-11-15T01:15:26.640Z,637.20
2023-11-15T01:15:38.595Z,638.04
2023-11-15T01:15:49.635Z,638.29
2023-11-15T01:16:01.650Z,638.11
2023-11-15T01:16:12.585Z,637.77
2023-11-15T01:16:23.619Z,636.42
2023-11-15T01:16:34.600Z,637.05
2023-11-15T01:16:45.594Z,637.06
2023-11-15T01:16:56.623Z,636.94
2023-11-15T01:17:08.588Z,636.84
2023-11-15T01:17:19.617Z,636.52
2023-11-15T01:17:31.671Z,637.14
2023-11-15T01:17:42.868Z,636.87
2023-11-15T01:17:54.838Z,637.00
2023-11-15T01:18:05.644Z,637.22
2023-11-15T01:18:17.641Z,638.20
2023-11-15T01:18:29.614Z,636.70
2023-11-15T01:18:41.589Z,636.72
2023-11-15T01:18:52.598Z,636.43
2023-11-15T01:19:03.609Z,636.37
2023-11-15T01:19:15.606Z,636.35
2023-11-15T01:19:26.618Z,636.24
2023-11-15T01:19:37.620Z,636.44
2023-11-15T01:19:49.613Z,636.31
2023-11-15T01:20:00.618Z,636.45
2023-11-15T01:20:11.584Z,636.19
2023-11-15T01:20:22.609Z,636.34
2023-11-15T01:20:33.641Z,636.55
2023-11-15T01:20:45.633Z,635.93
2023-11-15T01:20:57.606Z,636.42
2023-11-15T01:21:08.605Z,636.27
2023-11-15T01:21:20.584Z,636.55
2023-11-15T01:21:31.590Z,635.41
2023-11-15T01:21:42.587Z,636.11
2023-11-15T01:21:53.605Z,636.81
2023-11-15T01:22:04.606Z,636.89
2023-11-15T01:22:16.590Z,636.20
2023-11-15T01:22:27.588Z,636.06
2023-11-15T01:22:38.583Z,635.93
2023-11-15T01:22:49.609Z,636.51
2023-11-15T01:23:00.603Z,635.87
2023-11-15T01:23:11.602Z,635.52
2023-11-15T01:23:22.652Z,635.67
2023-11-15T01:23:34.698Z,636.15
2023-11-15T01:23:46.631Z,635.54
2023-11-15T01:23:58.596Z,635.82
2023-11-15T01:24:09.585Z,635.88
2023-11-15T01:24:20.581Z,635.99
2023-11-15T01:24:31.606Z,635.92
2023-11-15T01:24:43.597Z,636.30
2023-11-15T01:24:54.597Z,636.09
2023-11-15T01:25:05.592Z,636.19
2023-11-15T01:25:16.594Z,635.41
2023-11-15T01:25:27.601Z,635.10
2023-11-15T01:25:39.604Z,635.32
2023-11-15T01:25:50.606Z,635.72
2023-11-15T01:26:02.584Z,635.98
2023-11-15T01:26:13.588Z,636.11
2023-11-15T01:26:24.655Z,635.29
2023-11-15T01:26:36.627Z,636.08
2023-11-15T01:26:48.630Z,635.84
2023-11-15T01:27:00.601Z,635.26
2023-11-15T01:27:11.608Z,635.62
2023-11-15T01:27:23.595Z,635.84
2023-11-15T01:27:34.596Z,635.84
2023-11-15T01:27:45.590Z,636.16
2023-11-15T01:27:56.611Z,635.82
2023-11-15T01:28:08.588Z,635.26
2023-11-15T01:28:19.625Z,635.08
2023-11-15T01:28:31.596Z,635.07
2023-11-15T01:28:42.640Z,634.52
2023-11-15T01:28:54.595Z,634.76
2023-11-15T01:29:05.607Z,634.87
2023-11-15T01:29:17.606Z,635.03
2023-11-15T01:29:28.623Z,635.22
2023-11-15T01:29:40.617Z,634.89
2023-11-15T01:29:52.601Z,634.85
2023-11-15T01:30:03.592Z,634.92
2023-11-15T01:30:14.612Z,635.16
2023-11-15T01:30:26.609Z,634.82
2023-11-15T01:30:37.592Z,634.59
2023-11-15T01:30:49.586Z,634.09
2023-11-15T01:31:00.597Z,634.32
2023-11-15T01:31:11.592Z,634.31
2023-11-15T01:31:23.580Z,633.84
2023-11-15T01:31:34.598Z,634.56
2023-11-15T01:31:45.608Z,634.90
2023-11-15T01:31:57.614Z,635.10
2023-11-15T01:32:09.605Z,634.18
2023-11-15T01:32:21.629Z,633.91
2023-11-15T01:32:32.716Z,634.79
2023-11-15T01:32:44.699Z,635.00
2023-11-15T01:32:56.750Z,634.57
2023-11-15T01:33:07.654Z,634.64
2023-11-15T01:33:18.713Z,634.18
2023-11-15T01:33:29.598Z,634.37
2023-11-15T01:33:40.746Z,634.68
2023-11-15T01:33:52.653Z,634.38
2023-11-15T01:34:03.628Z,634.12
2023-11-15T01:34:15.618Z,634.74
2023-11-15T01:34:27.606Z,634.12
2023-11-15T01:34:38.715Z,634.67
2023-11-15T01:34:50.595Z,634.75
2023-11-15T01:35:01.602Z,634.83
2023-11-15T01:35:13.607Z,634.40
2023-11-15T01:35:24.703Z,634.35
2023-11-15T01:35:36.633Z,634.04
2023-11-15T01:35:48.706Z,633.54
2023-11-15T01:36:00.603Z,633.54
2023-11-15T01:36:11.600Z,633.35
2023-11-15T01:36:23.587Z,632.88
2023-11-15T01:36:34.575Z,632.98
2023-11-15T01:36:45.567Z,633.86
2023-11-15T01:36:56.593Z,634.73
2023-11-15T01:37:07.638Z,634.32
2023-11-15T01:37:19.612Z,634.02
2023-11-15T01:37:31.604Z,634.19
2023-11-15T01:37:42.610Z,634.00
2023-11-15T01:37:54.588Z,634.02
2023-11-15T01:38:05.582Z,633.70
2023-11-15T01:38:16.600Z,633.57
2023-11-15T01:38:27.571Z,633.41
2023-11-15T01:38:38.646Z,633.53
2023-11-15T01:38:49.619Z,633.62
2023-11-15T01:39:00.620Z,633.91
2023-11-15T01:39:11.604Z,633.82
2023-11-15T01:39:23.588Z,633.38
2023-11-15T01:39:34.618Z,632.74
2023-11-15T01:39:46.604Z,632.49
2023-11-15T01:39:57.601Z,633.57
2023-11-15T01:40:09.607Z,633.73
2023-11-15T01:40:20.613Z,633.63
2023-11-15T01:40:32.589Z,633.62
2023-11-15T01:40:44.575Z,633.22
2023-11-15T01:40:55.590Z,633.29
2023-11-15T01:41:06.597Z,633.21
2023-11-15T01:41:17.589Z,633.30
2023-11-15T01:41:28.635Z,633.34
2023-11-15T01:41:39.669Z,633.14
2023-11-15T01:41:51.587Z,632.87
2023-11-15T01:42:02.586Z,634.05
2023-11-15T01:42:14.609Z,633.92
2023-11-15T01:42:25.620Z,633.82
2023-11-15T01:42:37.606Z,633.12
2023-11-15T01:42:49.669Z,632.68
2023-11-15T01:43:00.580Z,632.77
2023-11-15T01:43:12.587Z,633.60
2023-11-15T01:43:23.593Z,633.28
2023-11-15T01:43:35.593Z,633.26
2023-11-15T01:43:46.592Z,633.61
2023-11-15T01:43:57.609Z,633.45
2023-11-15T01:44:09.616Z,632.97
2023-11-15T01:44:21.735Z,633.09
2023-11-15T01:44:33.602Z,633.33
2023-11-15T01:44:44.623Z,634.09
2023-11-15T01:44:56.690Z,633.46
2023-11-15T01:45:08.635Z,633.38
2023-11-15T01:45:20.607Z,632.91
2023-11-15T01:45:31.613Z,633.23
2023-11-15T01:45:43.594Z,633.36
2023-11-15T01:45:54.641Z,633.25
2023-11-15T01:46:06.700Z,632.89
2023-11-15T01:46:18.650Z,632.42
2023-11-15T01:46:30.670Z,632.53
2023-11-15T01:46:41.629Z,633.03
2023-11-15T01:46:52.621Z,633.01
2023-11-15T01:47:03.563Z,633.16
2023-11-15T01:47:14.574Z,632.91
2023-11-15T01:47:25.740Z,632.90
2023-11-15T01:47:36.598Z,633.15
2023-11-15T01:47:47.674Z,632.94
2023-11-15T01:47:58.672Z,633.78
2023-11-15T01:48:10.648Z,634.11
2023-11-15T01:48:21.602Z,633.10
2023-11-15T01:48:33.595Z,632.92
2023-11-15T01:48:44.584Z,632.96
2023-11-15T01:48:55.608Z,633.03
2023-11-15T01:49:07.581Z,633.26
2023-11-15T01:49:19.589Z,632.72
2023-11-15T01:49:30.591Z,632.67
2023-11-15T01:49:41.587Z,633.74
2023-11-15T01:49:52.610Z,633.33
2023-11-15T01:50:04.596Z,632.80
2023-11-15T01:50:15.593Z,633.23
2023-11-15T01:50:26.602Z,633.35
2023-11-15T01:50:37.671Z,633.08
2023-11-15T01:50:49.661Z,632.90
2023-11-15T01:51:01.612Z,633.09
2023-11-15T01:51:13.590Z,633.23
2023-11-15T01:51:24.585Z,632.83
2023-11-15T01:51:36.609Z,632.82
2023-11-15T01:51:48.612Z,633.09
2023-11-15T01:51:59.612Z,632.85
2023-11-15T01:52:11.622Z,633.04
2023-11-15T01:52:23.594Z,632.57
2023-11-15T01:52:34.588Z,632.58
2023-11-15T01:52:46.583Z,632.73
2023-11-15T01:52:57.586Z,632.53
2023-11-15T01:53:08.602Z,632.46
2023-11-15T01:53:20.604Z,632.21
2023-11-15T01:53:31.675Z,632.31
2023-11-15T01:53:43.631Z,632.49
2023-11-15T01:53:54.634Z,632.38
2023-11-15T01:54:06.583Z,632.36
2023-11-15T01:54:17.607Z,632.44
2023-11-15T01:54:28.616Z,632.38
2023-11-15T01:54:40.582Z,632.25
2023-11-15T01:54:52.586Z,632.15
2023-11-15T01:55:03.582Z,632.23
2023-11-15T01:55:14.629Z,632.36
2023-11-15T01:55:26.607Z,632.42
2023-11-15T01:55:38.620Z,632.47
2023-11-15T01:55:50.585Z,632.43
2023-11-15T01:56:01.564Z,632.53
2023-11-15T01:56:12.563Z,632.29
2023-11-15T01:56:23.617Z,632.26
2023-11-15T01:56:35.677Z,632.16
2023-11-15T01:56:47.608Z,632.04
2023-11-15T01:56:58.606Z,632.06
2023-11-15T01:57:09.602Z,632.24
2023-11-15T01:57:21.610Z,632.08
2023-11-15T01:57:33.607Z,631.99
2023-11-15T01:57:44.607Z,631.92
2023-11-15T01:57:56.650Z,632.24
2023-11-15T01:58:07.585Z,632.02
2023-11-15T01:58:18.612Z,632.03
2023-11-15T01:58:30.618Z,631.78
2023-11-15T01:58:42.591Z,631.97
2023-11-15T01:58:53.602Z,632.03
2023-11-15T01:59:04.613Z,631.45
2023-11-15T01:59:15.618Z,631.56
2023-11-15T01:59:27.601Z,631.74
2023-11-15T01:59:38.630Z,631.70
2023-11-15T01:59:50.627Z,631.25
2023-11-15T02:00:02.600Z,631.76
2023-11-15T02:00:13.584Z,631.71
2023-11-15T02:00:25.605Z,631.89
2023-11-15T02:00:37.588Z,631.72
2023-11-15T02:00:48.596Z,631.53
2023-11-15T02:00:59.604Z,631.58
2023-11-15T02:01:10.637Z,631.51
2023-11-15T02:01:22.623Z,631.35
2023-11-15T02:01:34.632Z,631.37
2023-11-15T02:01:46.717Z,631.87
2023-11-15T02:01:58.623Z,631.57
2023-11-15T02:02:10.590Z,631.27
2023-11-15T02:02:21.629Z,631.33
2023-11-15T02:02:32.668Z,631.31
2023-11-15T02:02:43.773Z,631.52
2023-11-15T02:02:54.749Z,631.41
2023-11-15T02:03:05.666Z,631.33
2023-11-15T02:03:17.705Z,631.42
2023-11-15T02:03:29.649Z,631.28
2023-11-15T02:03:40.659Z,630.93
2023-11-15T02:03:51.737Z,631.14
2023-11-15T02:04:03.709Z,631.25
2023-11-15T02:04:15.656Z,630.97
2023-11-15T02:04:26.731Z,630.91
2023-11-15T02:04:37.636Z,631.63
2023-11-15T02:04:49.592Z,631.28
2023-11-15T02:05:00.608Z,631.56
2023-11-15T02:05:11.611Z,631.21
2023-11-15T02:05:23.622Z,631.13
2023-11-15T02:05:34.615Z,630.94
2023-11-15T02:05:45.663Z,631.12
2023-11-15T02:05:57.629Z,630.78
2023-11-15T02:06:09.590Z,631.64
2023-11-15T02:06:20.588Z,631.46
2023-11-15T02:06:31.600Z,631.60
2023-11-15T02:06:42.582Z,631.21
2023-11-15T02:06:53.579Z,631.38
2023-11-15T02:07:04.580Z,631.22
2023-11-15T02:07:16.582Z,631.04
2023-11-15T02:07:27.611Z,631.12
2023-11-15T02:07:38.596Z,630.76
2023-11-15T02:07:50.588Z,631.19
2023-11-15T02:08:01.600Z,631.10
2023-11-15T02:08:12.612Z,630.83
2023-11-15T02:08:24.638Z,630.91
2023-11-15T02:08:36.632Z,630.86
2023-11-15T02:08:48.662Z,631.31
2023-11-15T02:08:59.616Z,631.22
2023-11-15T02:09:10.598Z,631.11
2023-11-15T02:09:22.596Z,630.56
2023-11-15T02:09:33.602Z,630.73
2023-11-15T02:09:45.587Z,630.87
2023-11-15T02:09:56.622Z,630.97
2023-11-15T02:10:07.606Z,631.48
2023-11-15T02:10:18.597Z,631.02
2023-11-15T02:10:29.600Z,630.62
2023-11-15T02:10:40.595Z,630.89
2023-11-15T02:10:51.592Z,630.78
2023-11-15T02:11:02.586Z,630.81
2023-11-15T02:11:13.595Z,630.81
2023-11-15T02:11:24.609Z,630.64
2023-11-15T02:11:36.664Z,630.46
2023-11-15T02:11:47.618Z,630.35
2023-11-15T02:11:59.600Z,630.26
2023-11-15T02:12:11.597Z,630.89
2023-11-15T02:12:22.596Z,631.85
2023-11-15T02:12:33.583Z,630.96
2023-11-15T02:12:44.579Z,630.31
2023-11-15T02:12:55.605Z,630.59
2023-11-15T02:13:07.582Z,630.21
2023-11-15T02:13:19.579Z,629.88
2023-11-15T02:13:31.587Z,630.27
2023-11-15T02:13:42.621Z,629.81
2023-11-15T02:13:54.583Z,629.73
2023-11-15T02:14:05.582Z,629.73
2023-11-15T02:14:16.604Z,629.36
2023-11-15T02:14:28.645Z,629.51
2023-11-15T02:14:40.640Z,630.08
2023-11-15T02:14:52.662Z,631.56
2023-11-15T02:15:04.642Z,630.31
2023-11-15T02:15:16.636Z,630.23
2023-11-15T02:15:28.592Z,630.19
2023-11-15T02:15:40.613Z,629.65
2023-11-15T02:15:52.598Z,629.64
2023-11-15T02:16:04.613Z,629.62
2023-11-15T02:16:16.630Z,629.59
2023-11-15T02:16:28.665Z,629.46
2023-11-15T02:16:39.683Z,629.24
2023-11-15T02:16:51.612Z,629.58
2023-11-15T02:17:03.602Z,629.67
2023-11-15T02:17:14.604Z,629.88
2023-11-15T02:17:26.657Z,631.44
2023-11-15T02:17:37.692Z,630.14
2023-11-15T02:17:49.749Z,630.79
2023-11-15T02:18:01.692Z,629.55
2023-11-15T02:18:13.673Z,629.50
2023-11-15T02:18:24.725Z,628.39
2023-11-15T02:18:36.685Z,629.16
2023-11-15T02:18:48.592Z,631.19
2023-11-15T02:18:59.607Z,629.66
2023-11-15T02:19:10.611Z,630.59
2023-11-15T02:19:21.607Z,629.61
2023-11-15T02:19:33.584Z,629.36
2023-11-15T02:19:44.587Z,629.69
2023-11-15T02:19:56.650Z,629.62
2023-11-15T02:20:07.609Z,630.87
2023-11-15T02:20:19.662Z,629.50
2023-11-15T02:20:30.617Z,629.70
2023-11-15T02:20:42.594Z,629.21
2023-11-15T02:20:53.623Z,629.08
2023-11-15T02:21:04.598Z,629.31
2023-11-15T02:21:15.610Z,628.85
2023-11-15T02:21:27.603Z,628.87
2023-11-15T02:21:38.603Z,630.46
2023-11-15T02:21:50.593Z,629.51
2023-11-15T02:22:01.593Z,629.17
2023-11-15T02:22:12.579Z,628.97
2023-11-15T02:22:23.604Z,629.05
2023-11-15T02:22:34.598Z,629.35
2023-11-15T02:22:45.612Z,629.04